Time;durP1;ratioP1;P1;durP2;ratioP2;P2;SDS_P1;SDS_P2;PMS_P1;PMS_P2;Temp;Humidity;BMP_temperature;BMP_pressure;BME280_temperature;BME280_humidity;BME280_pressure;Samples;Min_cycle;Max_cycle;Signal;HPM_P1;HPM_P2
2021/06/26 00:02:24;;;;;;;26.17;20.02;;;;;;;;;;4990228;28;20650;-69
2021/06/26 00:04:49;;;;;;;29.83;20.52;;;;;;;;;;5000098;28;20194;-69
2021/06/26 00:07:14;;;;;;;29.33;21.30;;;;;;;;;;4989025;28;20293;-69
2021/06/26 00:09:40;;;;;;;28.35;21.00;;;;;;;;;;4998968;28;20690;-68
2021/06/26 00:12:06;;;;;;;28.98;21.52;;;;;;;;;;4988798;28;20198;-69
2021/06/26 00:14:31;;;;;;;32.53;21.90;;;;;;;;;;4997483;28;20209;-69
2021/06/26 00:16:56;;;;;;;33.78;21.73;;;;;;;;;;4989472;28;20201;-69
2021/06/26 00:19:22;;;;;;;30.50;21.83;;;;;;;;;;4998144;28;20178;-69
2021/06/26 00:21:47;;;;;;;30.52;22.20;;;;;;;;;;4997288;28;20190;-69
2021/06/26 00:24:12;;;;;;;33.10;21.92;;;;;;;;;;4991443;28;20286;-69
2021/06/26 00:26:38;;;;;;;29.83;21.52;;;;;;;;;;4996835;28;20357;-69
2021/06/26 00:29:03;;;;;;;34.35;23.48;;;;;;;;;;4991721;28;20268;-69
2021/06/26 00:31:28;;;;;;;32.63;23.15;;;;;;;;;;4996878;28;20518;-69
2021/06/26 00:33:54;;;;;;;37.95;25.10;;;;;;;;;;4990967;28;20248;-68
2021/06/26 00:36:19;;;;;;;34.20;23.80;;;;;;;;;;4995933;28;20194;-68
2021/06/26 00:38:44;;;;;;;34.25;24.52;;;;;;;;;;4989886;28;20194;-68
2021/06/26 00:41:10;;;;;;;32.33;25.08;;;;;;;;;;4996531;28;20195;-68
2021/06/26 00:43:35;;;;;;;35.53;24.40;;;;;;;;;;4990736;28;20202;-68
2021/06/26 00:46:01;;;;;;;39.10;25.75;;;;;;;;;;4996121;28;20268;-68
2021/06/26 00:48:27;;;;;;;34.13;25.38;;;;;;;;;;4991852;28;20187;-69
2021/06/26 00:50:52;;;;;;;35.65;26.23;;;;;;;;;;4997049;28;20318;-68
2021/06/26 00:53:18;;;;;;;35.28;25.55;;;;;;;;;;4996974;28;20202;-68
2021/06/26 00:55:51;;;;;;;36.40;25.92;;;;;;;;;;4988566;28;20195;-68
2021/06/26 00:58:21;;;;;;;38.75;25.83;;;;;;;;;;4997729;28;20175;-68
2021/06/26 01:00:47;;;;;;;34.70;25.45;;;;;;;;;;4989546;28;20217;-68
2021/06/26 01:03:13;;;;;;;35.10;25.17;;;;;;;;;;5011765;28;20182;-68
2021/06/26 01:05:38;;;;;;;34.45;26.00;;;;;;;;;;4990019;28;20721;-68
2021/06/26 01:08:04;;;;;;;36.80;26.02;;;;;;;;;;4998621;28;20245;-68
2021/06/26 01:10:30;;;;;;;35.90;26.48;;;;;;;;;;4990290;28;20543;-68
2021/06/26 01:12:57;;;;;;;33.00;24.95;;;;;;;;;;4998950;28;20210;-68
2021/06/26 01:15:22;;;;;;;37.88;25.95;;;;;;;;;;4987853;28;20202;-69
2021/06/26 01:17:47;;;;;;;36.83;25.20;;;;;;;;;;4997779;28;20547;-68
2021/06/26 01:20:14;;;;;;;34.95;25.42;;;;;;;;;;4988236;28;20814;-68
2021/06/26 01:22:59;;;;;;;32.70;24.25;;;;;;;;;;4999207;28;20214;-68
2021/06/26 01:25:26;;;;;;;32.60;24.15;;;;;;;;;;4988186;28;20198;-68
2021/06/26 01:27:54;;;;;;;38.80;24.85;;;;;;;;;;4996050;28;20206;-68
2021/06/26 01:30:28;;;;;;;36.13;24.85;;;;;;;;;;4995243;28;20631;-68
2021/06/26 01:32:53;;;;;;;35.38;25.75;;;;;;;;;;4990554;28;20286;-68
2021/06/26 01:35:19;;;;;;;35.20;25.40;;;;;;;;;;4996194;28;20285;-68
2021/06/26 01:37:45;;;;;;;39.05;27.20;;;;;;;;;;4989513;28;20188;-68
2021/06/26 01:40:18;;;;;;;38.13;26.80;;;;;;;;;;5000975;28;21191;-68
2021/06/26 01:42:45;;;;;;;38.08;28.38;;;;;;;;;;4993861;28;20230;-68
2021/06/26 01:45:11;;;;;;;40.40;28.40;;;;;;;;;;5001096;28;20538;-68
2021/06/26 01:47:36;;;;;;;41.17;29.38;;;;;;;;;;4995732;28;20250;-68
2021/06/26 01:50:03;;;;;;;40.17;27.95;;;;;;;;;;5001715;28;20288;-69
2021/06/26 01:52:28;;;;;;;39.67;28.27;;;;;;;;;;4996868;28;20190;-68
2021/06/26 01:54:53;;;;;;;40.67;28.02;;;;;;;;;;5001323;28;20799;-68
2021/06/26 01:57:19;;;;;;;36.47;26.00;;;;;;;;;;4995682;28;20190;-68
2021/06/26 01:59:44;;;;;;;36.85;27.85;;;;;;;;;;5001380;28;20280;-68
2021/06/26 02:02:09;;;;;;;40.20;26.70;;;;;;;;;;5001499;28;20198;-68
2021/06/26 02:04:35;;;;;;;44.83;30.67;;;;;;;;;;4989148;28;20191;-68
2021/06/26 02:07:00;;;;;;;42.00;30.08;;;;;;;;;;5002624;28;20194;-68
2021/06/26 02:09:26;;;;;;;46.17;30.58;;;;;;;;;;4991768;28;20215;-68
2021/06/26 02:11:52;;;;;;;44.10;31.23;;;;;;;;;;5002678;28;20187;-68
2021/06/26 02:14:17;;;;;;;39.85;28.77;;;;;;;;;;4990875;28;20227;-68
2021/06/26 02:16:43;;;;;;;45.90;30.17;;;;;;;;;;5000315;28;20602;-68
2021/06/26 02:19:09;;;;;;;42.20;31.10;;;;;;;;;;4988160;28;20227;-68
2021/06/26 02:21:34;;;;;;;49.38;31.95;;;;;;;;;;4999599;28;20549;-68
2021/06/26 02:24:00;;;;;;;48.53;32.83;;;;;;;;;;4989053;28;20700;-68
2021/06/26 02:26:25;;;;;;;48.33;32.78;;;;;;;;;;4998953;28;20203;-68
2021/06/26 02:28:51;;;;;;;45.75;32.35;;;;;;;;;;4991469;28;20187;-68
2021/06/26 02:31:17;;;;;;;49.22;32.75;;;;;;;;;;4998791;28;20297;-68
2021/06/26 02:33:42;;;;;;;42.97;31.02;;;;;;;;;;5000019;28;20990;-68
2021/06/26 02:36:08;;;;;;;47.47;32.33;;;;;;;;;;4990781;28;20194;-69
2021/06/26 02:38:33;;;;;;;45.25;31.25;;;;;;;;;;5000025;28;20214;-68
2021/06/26 02:40:59;;;;;;;45.08;30.77;;;;;;;;;;4992946;28;20272;-68
2021/06/26 02:43:25;;;;;;;46.42;32.33;;;;;;;;;;4998159;28;20278;-68
2021/06/26 02:45:50;;;;;;;47.25;32.58;;;;;;;;;;4990134;28;20640;-68
2021/06/26 02:48:16;;;;;;;47.42;31.20;;;;;;;;;;4998763;28;20201;-68
2021/06/26 02:50:41;;;;;;;46.40;31.17;;;;;;;;;;4989490;28;20245;-68
2021/06/26 02:53:07;;;;;;;47.08;31.20;;;;;;;;;;4998591;28;20269;-68
2021/06/26 02:55:33;;;;;;;56.15;34.92;;;;;;;;;;4991051;28;21525;-68
2021/06/26 02:57:59;;;;;;;53.80;35.53;;;;;;;;;;5000386;28;21758;-68
2021/06/26 03:00:25;;;;;;;52.03;33.13;;;;;;;;;;5013631;28;20211;-68
2021/06/26 03:02:50;;;;;;;43.78;31.90;;;;;;;;;;4989887;28;20190;-68
2021/06/26 03:05:16;;;;;;;44.17;31.17;;;;;;;;;;4998941;28;20191;-68
2021/06/26 03:07:51;;;;;;;47.17;33.30;;;;;;;;;;4990911;28;20211;-68
2021/06/26 03:10:18;;;;;;;50.60;33.35;;;;;;;;;;4999479;28;20174;-68
2021/06/26 03:12:43;;;;;;;45.25;31.75;;;;;;;;;;5006728;28;20277;-68
2021/06/26 03:15:09;;;;;;;45.63;32.78;;;;;;;;;;4998190;28;20639;-68
2021/06/26 03:17:34;;;;;;;47.60;32.83;;;;;;;;;;4989002;28;20194;-68
2021/06/26 03:20:00;;;;;;;45.75;31.58;;;;;;;;;;4997774;28;20183;-69
2021/06/26 03:22:25;;;;;;;44.83;30.83;;;;;;;;;;4989912;28;20281;-69
2021/06/26 03:24:50;;;;;;;44.85;30.63;;;;;;;;;;4997805;28;20224;-69
2021/06/26 03:27:16;;;;;;;42.85;32.50;;;;;;;;;;4987823;28;20225;-68
2021/06/26 03:29:42;;;;;;;47.10;32.08;;;;;;;;;;5000229;28;20198;-69
2021/06/26 03:32:07;;;;;;;48.65;31.67;;;;;;;;;;4998736;28;20249;-69
2021/06/26 03:34:33;;;;;;;44.70;32.38;;;;;;;;;;4991561;28;20186;-68
2021/06/26 03:36:58;;;;;;;46.15;32.90;;;;;;;;;;4997535;28;20244;-69
2021/06/26 03:39:24;;;;;;;51.42;32.50;;;;;;;;;;4989895;28;20546;-69
2021/06/26 03:41:49;;;;;;;46.63;31.85;;;;;;;;;;4998946;28;20247;-69
2021/06/26 03:44:14;;;;;;;46.00;31.02;;;;;;;;;;4987925;28;20187;-69
2021/06/26 03:46:40;;;;;;;44.00;32.35;;;;;;;;;;4998675;28;20210;-69
2021/06/26 03:49:06;;;;;;;39.13;29.50;;;;;;;;;;4988494;28;20254;-69
2021/06/26 03:51:32;;;;;;;41.28;28.83;;;;;;;;;;4998092;28;20299;-69
2021/06/26 03:53:57;;;;;;;42.28;30.75;;;;;;;;;;4989944;28;20282;-69
2021/06/26 03:56:22;;;;;;;40.42;28.55;;;;;;;;;;5000047;28;20197;-69
2021/06/26 03:58:48;;;;;;;39.25;28.45;;;;;;;;;;4988094;28;20191;-69
2021/06/26 04:01:13;;;;;;;42.00;30.13;;;;;;;;;;4999425;28;20674;-69
2021/06/26 04:03:39;;;;;;;46.90;31.10;;;;;;;;;;4996960;28;20273;-69
2021/06/26 04:06:04;;;;;;;41.25;29.77;;;;;;;;;;4990862;28;20280;-69
2021/06/26 04:08:29;;;;;;;38.15;28.55;;;;;;;;;;4996022;28;20253;-69
2021/06/26 04:10:55;;;;;;;45.15;31.20;;;;;;;;;;4990793;28;20199;-68
2021/06/26 04:13:20;;;;;;;42.35;30.73;;;;;;;;;;4996334;28;20190;-69
2021/06/26 04:15:45;;;;;;;36.95;28.25;;;;;;;;;;4990528;28;20187;-69
2021/06/26 04:18:11;;;;;;;39.63;28.77;;;;;;;;;;4996906;28;20241;-69
2021/06/26 04:20:37;;;;;;;38.00;28.15;;;;;;;;;;4991264;28;20183;-69
2021/06/26 04:23:02;;;;;;;36.58;27.00;;;;;;;;;;4998251;28;20725;-68
2021/06/26 04:25:28;;;;;;;39.15;27.15;;;;;;;;;;4307951;28;10000683;-69
2021/06/26 04:27:54;;;;;;;36.95;27.83;;;;;;;;;;4995419;28;20324;-69
2021/06/26 04:30:20;;;;;;;35.88;27.25;;;;;;;;;;4994579;28;20187;-69
2021/06/26 04:32:45;;;;;;;43.00;29.67;;;;;;;;;;4985335;28;20190;-68
2021/06/26 04:35:13;;;;;;;34.72;27.60;;;;;;;;;;4993681;28;20224;-69
2021/06/26 04:37:39;;;;;;;34.78;26.40;;;;;;;;;;4985991;28;20272;-69
2021/06/26 04:40:05;;;;;;;33.15;26.00;;;;;;;;;;4994419;28;20210;-69
2021/06/26 04:42:31;;;;;;;31.95;23.83;;;;;;;;;;4985888;28;20198;-69
2021/06/26 04:45:00;;;;;;;29.73;23.55;;;;;;;;;;4992773;28;20187;-69
2021/06/26 04:47:27;;;;;;;35.85;23.45;;;;;;;;;;4983609;28;20245;-69
2021/06/26 04:49:52;;;;;;;31.02;24.25;;;;;;;;;;4988422;28;20738;-69
2021/06/26 04:52:17;;;;;;;33.63;24.25;;;;;;;;;;4984104;28;20206;-69
2021/06/26 04:54:43;;;;;;;32.42;24.88;;;;;;;;;;4989343;28;20282;-69
2021/06/26 04:57:08;;;;;;;31.17;25.92;;;;;;;;;;4979504;28;20722;-69
2021/06/26 04:59:33;;;;;;;35.22;25.70;;;;;;;;;;4995101;28;20302;-68
2021/06/26 05:01:59;;;;;;;32.05;24.67;;;;;;;;;;4993791;28;20211;-69
2021/06/26 05:04:24;;;;;;;30.75;25.13;;;;;;;;;;4987920;28;20249;-69
2021/06/26 05:06:50;;;;;;;30.13;24.67;;;;;;;;;;4995586;28;20654;-69
2021/06/26 05:09:15;;;;;;;26.05;22.75;;;;;;;;;;4988406;28;20202;-69
2021/06/26 05:11:41;;;;;;;35.13;25.02;;;;;;;;;;4997442;28;20186;-69
2021/06/26 05:14:06;;;;;;;31.00;24.83;;;;;;;;;;4991803;28;20198;-69
2021/06/26 05:16:31;;;;;;;29.50;23.73;;;;;;;;;;5004023;28;21534;-69
2021/06/26 05:18:57;;;;;;;31.25;24.80;;;;;;;;;;4996093;28;20288;-69
2021/06/26 05:21:22;;;;;;;33.53;25.55;;;;;;;;;;5002524;28;20219;-69
2021/06/26 05:23:48;;;;;;;33.83;27.58;;;;;;;;;;4993893;28;20182;-69
2021/06/26 05:26:14;;;;;;;42.10;31.25;;;;;;;;;;5001470;28;21173;-69
2021/06/26 05:28:39;;;;;;;41.65;31.63;;;;;;;;;;4995245;28;20183;-69
2021/06/26 05:31:05;;;;;;;37.95;29.25;;;;;;;;;;5001159;28;20193;-69
2021/06/26 05:33:31;;;;;;;42.85;31.35;;;;;;;;;;5000911;28;20205;-68
2021/06/26 05:35:56;;;;;;;37.55;29.33;;;;;;;;;;4995133;28;20225;-69
2021/06/26 05:38:22;;;;;;;39.65;29.52;;;;;;;;;;5016810;28;20186;-69
2021/06/26 05:40:47;;;;;;;41.92;31.38;;;;;;;;;;4997146;28;20179;-69
2021/06/26 05:43:12;;;;;;;46.75;32.78;;;;;;;;;;5001944;28;20215;-69
2021/06/26 05:45:39;;;;;;;46.30;31.58;;;;;;;;;;4995108;28;20191;-69
2021/06/26 05:48:05;;;;;;;44.35;32.97;;;;;;;;;;4999115;28;20501;-69
2021/06/26 05:50:30;;;;;;;41.58;29.00;;;;;;;;;;4995223;28;20219;-69
2021/06/26 05:52:56;;;;;;;42.67;32.33;;;;;;;;;;5002105;28;20189;-69
2021/06/26 05:55:23;;;;;;;47.10;34.88;;;;;;;;;;4994926;28;20195;-69
2021/06/26 05:57:48;;;;;;;44.72;32.72;;;;;;;;;;5002319;28;20182;-69
2021/06/26 06:00:15;;;;;;;51.03;34.45;;;;;;;;;;4993420;28;20781;-68
2021/06/26 06:02:42;;;;;;;43.45;33.22;;;;;;;;;;4649484;28;10000781;-70
2021/06/26 06:05:08;;;;;;;56.80;36.22;;;;;;;;;;4993827;28;20443;-69
2021/06/26 06:07:36;;;;;;;48.45;35.42;;;;;;;;;;4988377;28;20206;-69
2021/06/26 06:10:04;;;;;;;48.88;34.10;;;;;;;;;;5001115;28;22194;-70
2021/06/26 06:12:31;;;;;;;49.15;35.90;;;;;;;;;;4991248;28;20187;-69
2021/06/26 06:14:56;;;;;;;47.28;34.33;;;;;;;;;;4999913;28;20194;-69
2021/06/26 06:17:21;;;;;;;47.13;34.22;;;;;;;;;;4992350;28;20204;-68
2021/06/26 06:19:47;;;;;;;46.45;33.53;;;;;;;;;;4999896;28;20210;-69
2021/06/26 06:22:12;;;;;;;49.80;34.05;;;;;;;;;;4991375;28;20191;-69
2021/06/26 06:24:37;;;;;;;43.85;32.95;;;;;;;;;;4998860;28;20684;-69
2021/06/26 06:27:03;;;;;;;43.03;32.35;;;;;;;;;;4988319;28;20532;-68
2021/06/26 06:29:29;;;;;;;46.67;33.88;;;;;;;;;;4996285;28;20201;-69
2021/06/26 06:31:54;;;;;;;43.33;32.30;;;;;;;;;;4992773;28;20190;-68
2021/06/26 06:34:19;;;;;;;40.15;30.80;;;;;;;;;;4994119;28;20191;-67
2021/06/26 06:36:45;;;;;;;40.20;31.13;;;;;;;;;;4997220;28;20210;-68
2021/06/26 06:39:10;;;;;;;41.33;33.05;;;;;;;;;;4986868;28;20201;-68
2021/06/26 06:41:35;;;;;;;45.30;33.03;;;;;;;;;;4996317;28;20229;-67
2021/06/26 06:44:01;;;;;;;44.13;31.83;;;;;;;;;;4988114;28;20306;-69
2021/06/26 06:46:26;;;;;;;42.25;31.10;;;;;;;;;;4998218;28;20217;-68
2021/06/26 06:48:51;;;;;;;39.90;30.75;;;;;;;;;;4642251;28;10000214;-69
2021/06/26 06:51:17;;;;;;;37.83;28.58;;;;;;;;;;4994788;28;20194;-69
2021/06/26 06:53:42;;;;;;;36.70;27.60;;;;;;;;;;4983029;28;20634;-69
2021/06/26 06:56:07;;;;;;;36.78;29.08;;;;;;;;;;4993766;28;20273;-69
2021/06/26 06:58:33;;;;;;;40.08;29.90;;;;;;;;;;4987037;28;20197;-68
2021/06/26 07:00:58;;;;;;;35.97;28.33;;;;;;;;;;4995638;28;20666;-68
2021/06/26 07:03:23;;;;;;;34.95;28.33;;;;;;;;;;4996140;28;20547;-68
2021/06/26 07:05:49;;;;;;;39.28;29.77;;;;;;;;;;4990141;28;20721;-69
2021/06/26 07:08:14;;;;;;;36.72;29.08;;;;;;;;;;4994182;28;20219;-68
2021/06/26 07:10:39;;;;;;;39.58;29.20;;;;;;;;;;4989008;28;20290;-69
2021/06/26 07:13:05;;;;;;;38.25;29.85;;;;;;;;;;4994209;28;20195;-68
2021/06/26 07:15:31;;;;;;;36.63;29.92;;;;;;;;;;4986216;28;20687;-69
2021/06/26 07:17:57;;;;;;;36.60;28.17;;;;;;;;;;4996184;28;20611;-69
2021/06/26 07:20:22;;;;;;;35.80;27.63;;;;;;;;;;4985133;28;20260;-69
2021/06/26 07:22:47;;;;;;;35.00;27.88;;;;;;;;;;4995575;28;20187;-69
2021/06/26 07:25:13;;;;;;;35.60;25.83;;;;;;;;;;4988417;28;20268;-68
2021/06/26 07:27:38;;;;;;;34.90;26.92;;;;;;;;;;4995308;28;20686;-68
2021/06/26 07:30:05;;;;;;;32.83;25.50;;;;;;;;;;4994811;28;20187;-69
2021/06/26 07:32:30;;;;;;;29.90;23.50;;;;;;;;;;4990419;28;20282;-69
2021/06/26 07:34:55;;;;;;;28.65;23.15;;;;;;;;;;4994964;28;20313;-69
2021/06/26 07:37:21;;;;;;;27.48;21.05;;;;;;;;;;4982103;28;20551;-69
2021/06/26 07:39:46;;;;;;;27.02;21.60;;;;;;;;;;4997020;28;20576;-69
2021/06/26 07:42:11;;;;;;;34.40;27.48;;;;;;;;;;4986716;28;20274;-67
2021/06/26 07:44:37;;;;;;;31.38;27.00;;;;;;;;;;4998342;28;20186;-68
2021/06/26 07:47:03;;;;;;;43.83;33.72;;;;;;;;;;5002639;28;20225;-68
2021/06/26 07:49:28;;;;;;;37.63;29.92;;;;;;;;;;4996806;28;20734;-69
2021/06/26 07:51:53;;;;;;;38.03;25.80;;;;;;;;;;4988191;28;20713;-68
2021/06/26 07:54:19;;;;;;;32.85;23.85;;;;;;;;;;4995019;28;20190;-69
2021/06/26 07:56:45;;;;;;;29.65;22.48;;;;;;;;;;4987638;28;20783;-69
2021/06/26 07:59:11;;;;;;;27.90;20.30;;;;;;;;;;4995313;28;20206;-69
2021/06/26 08:01:36;;;;;;;25.70;20.10;;;;;;;;;;4995167;28;20207;-68
2021/06/26 08:04:02;;;;;;;28.35;21.23;;;;;;;;;;4989928;28;20206;-68
2021/06/26 08:06:27;;;;;;;26.00;20.75;;;;;;;;;;4996606;28;20591;-68
2021/06/26 08:08:53;;;;;;;26.45;19.58;;;;;;;;;;4989159;28;20195;-69
2021/06/26 08:11:18;;;;;;;22.48;18.60;;;;;;;;;;4996195;28;20237;-68
2021/06/26 08:13:43;;;;;;;27.88;21.02;;;;;;;;;;4988440;28;20222;-66
2021/06/26 08:16:09;;;;;;;22.05;17.70;;;;;;;;;;4995259;28;20241;-69
2021/06/26 08:18:34;;;;;;;23.13;18.10;;;;;;;;;;4989024;28;20248;-69
2021/06/26 08:21:00;;;;;;;21.75;17.75;;;;;;;;;;4999587;28;20270;-68
2021/06/26 08:23:25;;;;;;;22.23;16.88;;;;;;;;;;4989688;28;20278;-68
2021/06/26 08:25:50;;;;;;;20.90;14.48;;;;;;;;;;4999332;28;20194;-68
2021/06/26 08:28:16;;;;;;;21.38;15.25;;;;;;;;;;4989915;28;20741;-69
2021/06/26 08:30:41;;;;;;;19.20;15.45;;;;;;;;;;5000169;28;20194;-69
2021/06/26 08:33:06;;;;;;;16.38;14.52;;;;;;;;;;4996581;28;20186;-68
2021/06/26 08:35:32;;;;;;;19.60;14.18;;;;;;;;;;4990890;28;20211;-69
2021/06/26 08:37:57;;;;;;;17.30;14.25;;;;;;;;;;4999358;28;20183;-69
2021/06/26 08:40:24;;;;;;;19.77;14.65;;;;;;;;;;4990334;28;20214;-67
2021/06/26 08:42:50;;;;;;;19.30;16.42;;;;;;;;;;4998210;28;20202;-69
2021/06/26 08:45:18;;;;;;;27.15;17.25;;;;;;;;;;4987514;28;20202;-67
2021/06/26 08:47:48;;;;;;;22.70;17.77;;;;;;;;;;4998698;28;20207;-69
2021/06/26 08:50:14;;;;;;;20.73;16.45;;;;;;;;;;4989670;28;20262;-68
2021/06/26 08:52:40;;;;;;;20.88;17.42;;;;;;;;;;4996909;28;20193;-66
2021/06/26 08:55:06;;;;;;;20.50;17.05;;;;;;;;;;4988763;28;20198;-68
2021/06/26 08:57:38;;;;;;;22.05;17.10;;;;;;;;;;4998622;28;20191;-69
2021/06/26 09:00:08;;;;;;;23.10;17.60;;;;;;;;;;4990322;28;20226;-69
2021/06/26 09:02:33;;;;;;;20.42;16.60;;;;;;;;;;4996760;28;20191;-69
2021/06/26 09:04:59;;;;;;;22.45;17.50;;;;;;;;;;4998516;28;20209;-69
2021/06/26 09:07:28;;;;;;;20.65;16.83;;;;;;;;;;4990079;28;20276;-69
2021/06/26 09:09:56;;;;;;;20.65;17.70;;;;;;;;;;4999664;28;20444;-69
2021/06/26 09:12:22;;;;;;;19.55;16.77;;;;;;;;;;4990247;28;20191;-68
2021/06/26 09:14:48;;;;;;;21.33;17.60;;;;;;;;;;4998053;28;20208;-68
2021/06/26 09:17:17;;;;;;;26.85;20.75;;;;;;;;;;4990481;28;20187;-70
2021/06/26 09:19:54;;;;;;;23.58;18.73;;;;;;;;;;4997540;28;20674;-69
2021/06/26 09:22:19;;;;;;;25.92;18.92;;;;;;;;;;4987614;28;20682;-69
2021/06/26 09:24:47;;;;;;;28.88;18.40;;;;;;;;;;4994057;28;20264;-69
2021/06/26 09:27:15;;;;;;;21.13;17.27;;;;;;;;;;4983057;28;20219;-69
2021/06/26 09:29:55;;;;;;;22.75;19.60;;;;;;;;;;4994178;28;20190;-69
2021/06/26 09:32:21;;;;;;;23.15;18.75;;;;;;;;;;4983811;28;20650;-66
2021/06/26 09:34:46;;;;;;;24.27;20.27;;;;;;;;;;4993214;28;20193;-68
2021/06/26 09:37:17;;;;;;;25.20;20.38;;;;;;;;;;4983048;28;20182;-68
2021/06/26 09:39:44;;;;;;;27.42;21.20;;;;;;;;;;4993723;28;20191;-69
2021/06/26 09:42:24;;;;;;;23.13;18.90;;;;;;;;;;4984706;28;20187;-69
2021/06/26 09:44:58;;;;;;;26.10;20.17;;;;;;;;;;4992651;28;20309;-69
2021/06/26 09:47:26;;;;;;;24.23;20.58;;;;;;;;;;4983669;28;20736;-69
2021/06/26 09:49:52;;;;;;;24.50;20.92;;;;;;;;;;4994015;28;20234;-70
2021/06/26 09:52:17;;;;;;;25.75;20.75;;;;;;;;;;4994814;28;20266;-70
2021/06/26 09:54:43;;;;;;;25.98;20.80;;;;;;;;;;4987686;28;20205;-69
2021/06/26 09:57:09;;;;;;;25.95;21.38;;;;;;;;;;4994288;28;20187;-69
2021/06/26 09:59:35;;;;;;;27.17;22.52;;;;;;;;;;4988768;28;20954;-70
2021/06/26 10:02:01;;;;;;;25.27;21.85;;;;;;;;;;4999045;28;20187;-70
2021/06/26 10:04:27;;;;;;;28.80;21.77;;;;;;;;;;4989690;28;20194;-69
2021/06/26 10:06:53;;;;;;;28.10;21.80;;;;;;;;;;4997220;28;20698;-69
2021/06/26 10:09:19;;;;;;;25.48;21.20;;;;;;;;;;4990607;28;20253;-67
2021/06/26 10:11:47;;;;;;;31.10;23.05;;;;;;;;;;4996445;28;20194;-68
2021/06/26 10:14:13;;;;;;;26.25;21.83;;;;;;;;;;4990498;28;20278;-69
2021/06/26 10:16:40;;;;;;;27.65;21.88;;;;;;;;;;4995863;28;20254;-69
2021/06/26 10:19:08;;;;;;;29.23;23.75;;;;;;;;;;4989060;28;20628;-69
2021/06/26 10:21:34;;;;;;;31.33;23.80;;;;;;;;;;4997117;28;20513;-69
2021/06/26 10:24:03;;;;;;;26.50;21.45;;;;;;;;;;4997310;28;20191;-67
2021/06/26 10:26:35;;;;;;;27.02;22.30;;;;;;;;;;4988963;28;20294;-68
2021/06/26 10:29:01;;;;;;;26.90;22.17;;;;;;;;;;4995570;28;20208;-69
2021/06/26 10:31:29;;;;;;;25.65;21.52;;;;;;;;;;4987664;28;20191;-70
2021/06/26 10:34:10;;;;;;;27.77;22.75;;;;;;;;;;4994700;28;20187;-69
2021/06/26 10:36:36;;;;;;;32.47;26.08;;;;;;;;;;5002909;28;20199;-69
2021/06/26 10:39:02;;;;;;;30.88;22.75;;;;;;;;;;4995284;28;20270;-67
2021/06/26 10:41:28;;;;;;;28.73;22.58;;;;;;;;;;4988961;28;21778;-68
2021/06/26 10:44:00;;;;;;;29.80;22.15;;;;;;;;;;4997443;28;20179;-67
2021/06/26 10:46:25;;;;;;;31.55;23.75;;;;;;;;;;4985843;28;21608;-69
2021/06/26 10:48:57;;;;;;;29.75;23.83;;;;;;;;;;4997564;28;20182;-67
2021/06/26 10:51:40;;;;;;;31.50;24.00;;;;;;;;;;4985090;28;20201;-68
2021/06/26 10:54:18;;;;;;;33.33;25.92;;;;;;;;;;4997001;28;20182;-68
2021/06/26 10:56:46;;;;;;;32.00;24.98;;;;;;;;;;4987010;28;21395;-67
2021/06/26 10:59:19;;;;;;;24.88;21.73;;;;;;;;;;4992832;28;20179;-69
2021/06/26 11:01:52;;;;;;;32.20;25.73;;;;;;;;;;4989187;28;20310;-66
2021/06/26 11:04:17;;;;;;;32.53;25.05;;;;;;;;;;4995445;28;20178;-68
2021/06/26 11:06:43;;;;;;;31.77;26.25;;;;;;;;;;4990552;28;20232;-67
2021/06/26 11:09:11;;;;;;;31.67;25.70;;;;;;;;;;4995359;28;20187;-67
2021/06/26 11:11:40;;;;;;;31.25;25.02;;;;;;;;;;4994432;28;20195;-67
2021/06/26 11:14:15;;;;;;;32.75;26.13;;;;;;;;;;4985674;28;20530;-66
2021/06/26 11:16:45;;;;;;;31.98;24.40;;;;;;;;;;4993837;28;20547;-67
2021/06/26 11:19:10;;;;;;;34.25;26.40;;;;;;;;;;4986328;28;20643;-67
2021/06/26 11:21:41;;;;;;;32.97;25.67;;;;;;;;;;4995612;28;20202;-67
2021/06/26 11:24:07;;;;;;;30.00;24.55;;;;;;;;;;4986661;28;20191;-68
2021/06/26 11:26:53;;;;;;;29.13;25.50;;;;;;;;;;4997219;28;20225;-68
2021/06/26 11:29:35;;;;;;;32.63;23.52;;;;;;;;;;4986886;28;21317;-68
2021/06/26 11:32:04;;;;;;;34.67;23.40;;;;;;;;;;5010653;28;20188;-69
2021/06/26 11:34:30;;;;;;;30.50;24.05;;;;;;;;;;5001781;28;20195;-70
2021/06/26 11:37:02;;;;;;;28.77;22.45;;;;;;;;;;4997627;28;20201;-68
2021/06/26 11:39:28;;;;;;;27.05;22.42;;;;;;;;;;4988285;28;20187;-70
2021/06/26 11:41:53;;;;;;;24.88;20.40;;;;;;;;;;4994925;28;20195;-70
2021/06/26 11:44:30;;;;;;;24.58;21.90;;;;;;;;;;4987017;28;20222;-70
2021/06/26 11:47:06;;;;;;;23.65;20.23;;;;;;;;;;4994187;28;20211;-69
2021/06/26 11:49:40;;;;;;;26.02;21.63;;;;;;;;;;4988246;28;20229;-69
2021/06/26 11:52:07;;;;;;;23.90;20.73;;;;;;;;;;5010107;28;20242;-70
2021/06/26 11:54:33;;;;;;;29.85;21.27;;;;;;;;;;4989739;28;20535;-69
2021/06/26 11:56:58;;;;;;;22.90;19.75;;;;;;;;;;5000365;28;20244;-70
2021/06/26 11:59:29;;;;;;;25.00;19.90;;;;;;;;;;4990759;28;20210;-71
2021/06/26 12:01:54;;;;;;;24.23;20.42;;;;;;;;;;4995231;28;20627;-69
2021/06/26 12:04:31;;;;;;;29.27;22.67;;;;;;;;;;4994041;28;20317;-71
2021/06/26 12:06:56;;;;;;;28.58;23.55;;;;;;;;;;4992468;28;20286;-71
2021/06/26 12:09:23;;;;;;;25.50;21.65;;;;;;;;;;4997000;28;20282;-71
2021/06/26 12:11:50;;;;;;;23.63;21.13;;;;;;;;;;4988599;28;20199;-70
2021/06/26 12:14:16;;;;;;;23.58;21.05;;;;;;;;;;4993325;28;20654;-70
2021/06/26 12:16:42;;;;;;;24.75;22.13;;;;;;;;;;4990682;28;20191;-68
2021/06/26 12:19:09;;;;;;;37.05;22.73;;;;;;;;;;4995165;28;20195;-70
2021/06/26 12:21:49;;;;;;;22.77;20.35;;;;;;;;;;4992901;28;20214;-70
2021/06/26 12:24:33;;;;;;;24.23;19.88;;;;;;;;;;4995743;28;20198;-70
2021/06/26 12:27:13;;;;;;;25.13;21.67;;;;;;;;;;4994339;28;20214;-69
2021/06/26 12:29:44;;;;;;;27.63;21.33;;;;;;;;;;4999590;28;20179;-69
2021/06/26 12:32:09;;;;;;;27.73;22.80;;;;;;;;;;4993898;28;20190;-69
2021/06/26 12:34:46;;;;;;;26.20;23.40;;;;;;;;;;4995833;28;20442;-69
2021/06/26 12:37:12;;;;;;;23.73;21.25;;;;;;;;;;4990004;28;20269;-69
2021/06/26 12:39:37;;;;;;;26.00;21.45;;;;;;;;;;4996014;28;20254;-68
2021/06/26 12:42:05;;;;;;;25.05;21.17;;;;;;;;;;4991238;28;20201;-67
2021/06/26 12:44:31;;;;;;;25.42;21.25;;;;;;;;;;4996262;28;20186;-68
2021/06/26 12:46:57;;;;;;;21.80;19.42;;;;;;;;;;4990061;28;20201;-68
2021/06/26 12:49:26;;;;;;;21.88;19.58;;;;;;;;;;4996062;28;20230;-69
2021/06/26 12:51:51;;;;;;;22.17;19.80;;;;;;;;;;4996969;28;20399;-67
2021/06/26 12:54:18;;;;;;;24.73;21.17;;;;;;;;;;4986673;28;20186;-67
2021/06/26 12:56:54;;;;;;;23.45;20.20;;;;;;;;;;4994344;28;20179;-68
2021/06/26 12:59:19;;;;;;;23.83;19.65;;;;;;;;;;4985709;28;20588;-68
2021/06/26 13:01:46;;;;;;;23.52;19.45;;;;;;;;;;4993668;28;20241;-68
2021/06/26 13:04:34;;;;;;;23.25;19.33;;;;;;;;;;4988542;28;20187;-68
2021/06/26 13:07:00;;;;;;;22.50;18.95;;;;;;;;;;4991583;28;20203;-70
2021/06/26 13:09:39;;;;;;;24.85;19.90;;;;;;;;;;4988117;28;20201;-70
2021/06/26 13:12:16;;;;;;;22.30;18.17;;;;;;;;;;4992926;28;20265;-71
2021/06/26 13:14:44;;;;;;;20.05;16.42;;;;;;;;;;4983735;28;20618;-70
2021/06/26 13:17:11;;;;;;;16.25;14.32;;;;;;;;;;4991343;28;20186;-70
2021/06/26 13:19:37;;;;;;;36.03;15.63;;;;;;;;;;4985388;28;20479;-68
2021/06/26 13:22:04;;;;;;;19.75;16.13;;;;;;;;;;4991576;28;20189;-68
2021/06/26 13:24:29;;;;;;;16.58;14.82;;;;;;;;;;4986976;28;20650;-68
2021/06/26 13:26:55;;;;;;;17.30;15.45;;;;;;;;;;5010305;28;20211;-67
2021/06/26 13:29:20;;;;;;;21.23;18.30;;;;;;;;;;4986473;28;20195;-70
2021/06/26 13:31:46;;;;;;;23.23;19.45;;;;;;;;;;4994464;28;20191;-70
2021/06/26 13:34:11;;;;;;;22.48;19.85;;;;;;;;;;4993393;28;20581;-67
2021/06/26 13:36:37;;;;;;;24.00;19.63;;;;;;;;;;4991391;28;20316;-67
2021/06/26 13:39:04;;;;;;;25.88;21.58;;;;;;;;;;5000086;28;20415;-69
2021/06/26 13:41:29;;;;;;;21.58;19.23;;;;;;;;;;4991364;28;20203;-69
2021/06/26 13:43:55;;;;;;;20.80;18.35;;;;;;;;;;4999243;28;20182;-69
2021/06/26 13:46:20;;;;;;;23.40;20.60;;;;;;;;;;4988740;28;20197;-69
2021/06/26 13:48:45;;;;;;;22.55;18.73;;;;;;;;;;4999485;28;20194;-69
2021/06/26 13:51:11;;;;;;;20.27;18.02;;;;;;;;;;4987975;28;20248;-69
2021/06/26 13:53:36;;;;;;;20.67;18.33;;;;;;;;;;5015610;28;20692;-68
2021/06/26 13:56:02;;;;;;;20.83;17.13;;;;;;;;;;5005825;28;20194;-69
2021/06/26 13:58:27;;;;;;;19.50;17.45;;;;;;;;;;4999451;28;20233;-69
2021/06/26 14:00:53;;;;;;;18.70;16.48;;;;;;;;;;4990679;28;20211;-69
2021/06/26 14:03:18;;;;;;;22.63;18.27;;;;;;;;;;4996693;28;20253;-69
2021/06/26 14:05:44;;;;;;;19.77;16.90;;;;;;;;;;4994937;28;20209;-69
2021/06/26 14:08:11;;;;;;;19.85;16.73;;;;;;;;;;4987958;28;20211;-69
2021/06/26 14:10:37;;;;;;;18.50;16.40;;;;;;;;;;4998477;28;20195;-69
2021/06/26 14:13:04;;;;;;;21.05;16.20;;;;;;;;;;4991172;28;20213;-69
2021/06/26 14:15:29;;;;;;;22.50;16.92;;;;;;;;;;4996638;28;20204;-68